createdAt,value
2022-08-05T00:02:37.955Z,4.40
2022-08-05T00:08:45.993Z,4.50
2022-08-05T00:14:51.851Z,4.25
2022-08-05T00:20:59.050Z,4.80
2022-08-05T00:27:01.703Z,5.78
2022-08-05T00:33:15.617Z,6.05
2022-08-05T00:39:36.947Z,5.80
2022-08-05T00:45:44.566Z,5.40
2022-08-05T00:51:51.400Z,5.80
2022-08-05T01:50:51.309Z,5.35
2022-08-05T01:58:13.648Z,5.32
2022-08-05T02:03:34.093Z,5.95
2022-08-05T02:09:36.523Z,5.60
2022-08-05T02:15:47.275Z,5.60
2022-08-05T02:22:26.503Z,7.22
2022-08-05T02:28:38.141Z,7.13
2022-08-05T02:34:41.613Z,7.53
2022-08-05T02:40:46.222Z,8.25
2022-08-05T02:46:58.681Z,7.55
2022-08-05T02:53:03.039Z,8.40
2022-08-05T02:59:08.470Z,7.93
2022-08-05T03:05:12.264Z,9.65
2022-08-05T03:11:57.184Z,8.63
2022-08-05T03:17:44.970Z,8.10
2022-08-05T03:23:47.317Z,10.00
2022-08-05T03:30:07.458Z,12.60
2022-08-05T03:36:13.751Z,9.18
2022-08-05T03:42:16.623Z,8.07
2022-08-05T03:48:22.789Z,6.32
2022-08-05T03:56:01.078Z,4.40
2022-08-05T04:01:13.003Z,5.00
2022-08-05T04:07:18.942Z,4.85
2022-08-05T04:13:51.383Z,5.40
2022-08-05T04:19:54.516Z,5.40
2022-08-05T04:26:01.109Z,5.32
2022-08-05T04:32:03.157Z,4.03
2022-08-05T04:38:11.050Z,4.00
2022-08-05T04:44:21.491Z,4.00
2022-08-05T04:50:37.184Z,4.05
2022-08-05T04:56:44.819Z,3.95
2022-08-05T05:02:46.735Z,5.00
2022-08-05T05:08:49.939Z,4.65
2022-08-05T05:14:52.068Z,4.90
2022-08-05T05:20:54.444Z,5.88
2022-08-05T05:26:56.460Z,6.47
2022-08-05T05:33:00.613Z,5.60
2022-08-05T05:39:03.835Z,5.53
2022-08-05T05:45:07.033Z,5.57
2022-08-05T05:51:14.875Z,5.65
2022-08-05T05:57:19.289Z,5.53
2022-08-05T06:03:39.959Z,5.93
2022-08-05T06:10:00.220Z,4.72
2022-08-05T06:16:31.830Z,4.53
2022-08-05T06:22:35.652Z,5.50
2022-08-05T06:28:40.358Z,5.00
2022-08-05T06:34:42.756Z,4.57
2022-08-05T06:40:49.437Z,3.93
2022-08-05T06:46:51.364Z,3.88
2022-08-05T06:52:58.701Z,3.33
2022-08-05T06:59:08.417Z,3.50
2022-08-05T07:05:15.374Z,3.28
2022-08-05T07:11:22.448Z,3.10
2022-08-05T07:18:00.931Z,3.60
2022-08-05T07:23:52.176Z,4.75
2022-08-05T07:30:27.355Z,5.38
2022-08-05T07:36:21.498Z,6.13
2022-08-05T07:42:33.657Z,4.85
2022-08-05T07:49:04.012Z,4.60
2022-08-05T07:55:04.143Z,4.47
2022-08-05T08:01:29.977Z,3.55
2022-08-05T08:07:39.517Z,3.83
2022-08-05T08:14:00.873Z,3.67
2022-08-05T08:20:23.516Z,3.35
2022-08-05T08:26:29.690Z,3.55
2022-08-05T08:32:36.292Z,3.58
2022-08-05T08:38:43.721Z,4.50
2022-08-05T08:45:23.704Z,3.78
2022-08-05T08:52:02.340Z,3.42
2022-08-05T08:57:48.416Z,2.78
2022-08-05T09:04:03.239Z,3.40
2022-08-05T09:10:12.581Z,2.95
2022-08-05T09:16:16.866Z,3.20
2022-08-05T09:22:30.869Z,3.30
2022-08-05T09:28:35.172Z,2.92
2022-08-05T09:34:50.795Z,2.60
2022-08-05T09:40:54.263Z,2.70
2022-08-05T09:47:15.383Z,2.70
2022-08-05T09:53:26.078Z,3.10
2022-08-05T09:59:40.514Z,2.70
2022-08-05T10:05:45.289Z,2.88
2022-08-05T10:11:51.060Z,3.10
2022-08-05T10:18:11.606Z,3.80
2022-08-05T10:24:15.140Z,4.13
2022-08-05T10:31:19.989Z,3.78
2022-08-05T10:36:41.658Z,3.83
2022-08-05T10:42:48.515Z,2.83
2022-08-05T10:49:02.705Z,2.70
2022-08-05T10:55:16.123Z,2.67
2022-08-05T11:02:04.646Z,3.15
2022-08-05T11:08:17.221Z,3.60
2022-08-05T11:15:01.274Z,5.05
2022-08-05T11:20:59.562Z,5.05
2022-08-05T11:27:51.461Z,7.07
2022-08-05T11:33:56.230Z,7.82
2022-08-05T11:40:03.578Z,8.75
2022-08-05T11:46:29.890Z,12.75
2022-08-05T11:52:29.935Z,13.25
2022-08-05T11:58:40.703Z,14.77
2022-08-05T12:04:45.774Z,14.55
2022-08-05T12:11:05.710Z,14.05
2022-08-05T12:18:02.806Z,13.30
2022-08-05T12:23:36.848Z,11.38
2022-08-05T12:29:45.273Z,9.35
2022-08-05T12:36:00.990Z,7.97
2022-08-05T12:42:03.543Z,6.65
2022-08-05T12:48:27.202Z,6.15
2022-08-05T12:54:35.909Z,5.63
2022-08-05T13:02:01.516Z,5.32
2022-08-05T13:07:16.070Z,5.03
2022-08-05T13:14:04.539Z,4.10
2022-08-05T13:20:16.522Z,4.80
2022-08-05T13:26:29.765Z,3.63
2022-08-05T13:32:36.318Z,2.70
2022-08-05T13:38:44.015Z,2.50
2022-08-05T13:44:55.689Z,2.28
2022-08-05T13:51:09.599Z,2.58
2022-08-05T13:57:12.483Z,2.60
2022-08-05T14:03:16.882Z,3.20
2022-08-05T14:09:18.780Z,2.60
2022-08-05T14:16:06.037Z,1.90
2022-08-05T14:22:09.121Z,1.88
2022-08-05T14:28:07.289Z,2.03
2022-08-05T14:34:11.982Z,2.08
2022-08-05T14:40:16.840Z,1.80
2022-08-05T14:46:19.199Z,1.73
2022-08-05T14:52:50.320Z,1.75
2022-08-05T14:58:47.615Z,2.00
2022-08-05T15:04:54.779Z,2.08
2022-08-05T15:10:56.853Z,2.50
2022-08-05T15:16:59.408Z,2.45
2022-08-05T15:23:05.723Z,2.35
2022-08-05T15:29:10.726Z,2.20
2022-08-05T15:35:12.852Z,2.28
2022-08-05T15:41:21.019Z,2.35
2022-08-05T15:47:26.310Z,2.30
2022-08-05T15:53:28.440Z,1.70
2022-08-05T15:59:40.788Z,2.30
2022-08-05T16:05:43.090Z,1.70
2022-08-05T16:11:53.805Z,2.13
2022-08-05T16:17:57.995Z,1.85
2022-08-05T16:24:03.344Z,1.80
2022-08-05T16:30:06.184Z,2.00
2022-08-05T16:36:08.648Z,1.98
2022-08-05T16:42:14.625Z,1.83
2022-08-05T16:48:33.500Z,1.50
2022-08-05T16:54:37.048Z,1.23
2022-08-05T17:00:41.917Z,1.30
2022-08-05T17:06:53.017Z,2.00
2022-08-05T17:12:55.795Z,1.50
2022-08-05T17:18:57.897Z,1.20
2022-08-05T17:25:00.295Z,1.65
2022-08-05T17:31:08.424Z,1.20
2022-08-05T17:37:41.663Z,1.30
2022-08-05T17:43:53.147Z,1.60
2022-08-05T17:50:04.370Z,1.40
2022-08-05T17:56:13.026Z,1.27
2022-08-05T18:02:19.701Z,1.20
2022-08-05T18:08:21.554Z,1.42
2022-08-05T18:14:24.717Z,1.75
2022-08-05T18:20:29.503Z,1.42
2022-08-05T18:26:33.687Z,1.63
2022-08-05T18:32:35.532Z,1.88
2022-08-05T18:38:41.332Z,1.95
2022-08-05T18:44:51.844Z,2.05
2022-08-05T18:52:05.401Z,2.10
2022-08-05T18:57:50.062Z,2.17
2022-08-05T19:03:56.593Z,1.90
2022-08-05T19:09:58.852Z,2.40
2022-08-05T19:16:03.736Z,1.98
2022-08-05T19:22:06.103Z,2.50
2022-08-05T19:28:07.958Z,2.85
2022-08-05T19:34:09.872Z,2.17
2022-08-05T19:40:12.677Z,2.45
2022-08-05T19:46:30.668Z,1.90
2022-08-05T19:52:32.949Z,1.80
2022-08-05T19:58:53.460Z,1.80
2022-08-05T20:04:58.677Z,1.50
2022-08-05T20:11:01.878Z,1.30
2022-08-05T20:17:06.302Z,0.90
2022-08-05T20:23:08.208Z,0.98
2022-08-05T20:29:26.648Z,0.80
2022-08-05T20:35:29.386Z,0.82
2022-08-05T20:41:43.988Z,0.80
2022-08-05T20:47:46.530Z,0.90
2022-08-05T20:53:56.746Z,0.77
2022-08-05T21:00:20.761Z,0.70
2022-08-05T21:06:28.335Z,0.70
2022-08-05T21:12:30.861Z,0.57
2022-08-05T21:18:34.945Z,0.70
2022-08-05T21:24:37.878Z,0.70
2022-08-05T21:30:40.359Z,0.60
2022-08-05T21:36:43.345Z,0.70
2022-08-05T21:42:48.823Z,0.80
2022-08-05T21:48:56.809Z,0.57
2022-08-05T21:55:06.267Z,0.70
2022-08-05T22:01:09.080Z,0.80
2022-08-05T22:07:12.821Z,0.70
2022-08-05T22:14:33.746Z,0.80
2022-08-05T22:19:57.460Z,0.70
2022-08-05T22:26:17.571Z,0.77
2022-08-05T22:32:23.054Z,0.90
2022-08-05T22:38:25.876Z,0.98
2022-08-05T22:44:28.831Z,1.20
2022-08-05T22:50:30.714Z,1.00
2022-08-05T22:56:32.603Z,0.93
2022-08-05T23:02:40.167Z,1.10
2022-08-05T23:08:52.158Z,0.90
2022-08-05T23:14:54.154Z,0.77
2022-08-05T23:20:58.327Z,1.10
2022-08-05T23:27:00.654Z,0.90
2022-08-05T23:33:02.632Z,1.00
2022-08-05T23:39:04.617Z,1.20
2022-08-05T23:45:14.350Z,1.48
2022-08-05T23:51:17.667Z,1.25
2022-08-05T23:57:20.286Z,1.23
